sensor_id;sensor_type;location;lat;lon;timestamp;temperature;humidity
66213;SHT31;53015;50.046;8.238;2022-10-16T00:00:16;14.59;98.39
66213;SHT31;53015;50.046;8.238;2022-10-16T00:02:42;14.51;98.40
66213;SHT31;53015;50.046;8.238;2022-10-16T00:05:07;14.57;98.41
66213;SHT31;53015;50.046;8.238;2022-10-16T00:07:33;14.50;98.35
66213;SHT31;53015;50.046;8.238;2022-10-16T00:09:58;14.43;98.56
66213;SHT31;53015;50.046;8.238;2022-10-16T00:12:23;14.37;98.66
66213;SHT31;53015;50.046;8.238;2022-10-16T00:14:49;14.43;98.69
66213;SHT31;53015;50.046;8.238;2022-10-16T00:17:14;14.50;98.77
66213;SHT31;53015;50.046;8.238;2022-10-16T00:19:40;14.51;98.60
66213;SHT31;53015;50.046;8.238;2022-10-16T00:22:05;14.54;98.46
66213;SHT31;53015;50.046;8.238;2022-10-16T00:24:30;14.51;98.29
66213;SHT31;53015;50.046;8.238;2022-10-16T00:26:56;14.41;98.41
66213;SHT31;53015;50.046;8.238;2022-10-16T00:29:21;14.43;98.47
66213;SHT31;53015;50.046;8.238;2022-10-16T00:31:47;14.44;98.60
66213;SHT31;53015;50.046;8.238;2022-10-16T00:34:12;14.50;98.37
66213;SHT31;53015;50.046;8.238;2022-10-16T00:36:37;14.51;98.24
66213;SHT31;53015;50.046;8.238;2022-10-16T00:39:03;14.50;98.35
66213;SHT31;53015;50.046;8.238;2022-10-16T00:41:28;14.48;98.16
66213;SHT31;53015;50.046;8.238;2022-10-16T00:43:56;14.43;98.22
66213;SHT31;53015;50.046;8.238;2022-10-16T00:46:26;14.44;98.27
66213;SHT31;53015;50.046;8.238;2022-10-16T00:49:10;14.41;98.21
66213;SHT31;53015;50.046;8.238;2022-10-16T00:51:39;14.44;98.45
66213;SHT31;53015;50.046;8.238;2022-10-16T00:54:09;14.41;98.50
66213;SHT31;53015;50.046;8.238;2022-10-16T00:56:36;14.47;98.26
66213;SHT31;53015;50.046;8.238;2022-10-16T00:59:04;14.53;98.29
66213;SHT31;53015;50.046;8.238;2022-10-16T01:01:32;14.51;98.25
66213;SHT31;53015;50.046;8.238;2022-10-16T01:03:57;14.60;98.08
66213;SHT31;53015;50.046;8.238;2022-10-16T01:06:36;14.57;98.09
66213;SHT31;53015;50.046;8.238;2022-10-16T01:09:23;14.56;97.89
66213;SHT31;53015;50.046;8.238;2022-10-16T01:17:22;14.61;98.12
66213;SHT31;53015;50.046;8.238;2022-10-16T01:20:03;14.64;98.20
66213;SHT31;53015;50.046;8.238;2022-10-16T01:25:22;14.64;98.01
66213;SHT31;53015;50.046;8.238;2022-10-16T01:27:51;14.71;97.94
66213;SHT31;53015;50.046;8.238;2022-10-16T01:30:21;14.67;97.92
66213;SHT31;53015;50.046;8.238;2022-10-16T01:35:51;14.61;98.00
66213;SHT31;53015;50.046;8.238;2022-10-16T01:38:25;14.65;98.03
66213;SHT31;53015;50.046;8.238;2022-10-16T01:41:01;14.65;98.12
66213;SHT31;53015;50.046;8.238;2022-10-16T01:43:46;14.64;98.00
66213;SHT31;53015;50.046;8.238;2022-10-16T01:46:14;14.60;98.11
66213;SHT31;53015;50.046;8.238;2022-10-16T01:48:41;14.53;98.53
66213;SHT31;53015;50.046;8.238;2022-10-16T01:51:10;14.54;98.48
66213;SHT31;53015;50.046;8.238;2022-10-16T01:53:37;14.56;98.45
66213;SHT31;53015;50.046;8.238;2022-10-16T01:56:05;14.54;98.50
66213;SHT31;53015;50.046;8.238;2022-10-16T01:58:35;14.56;98.37
66213;SHT31;53015;50.046;8.238;2022-10-16T02:01:03;14.61;98.40
66213;SHT31;53015;50.046;8.238;2022-10-16T02:03:29;14.63;98.27
66213;SHT31;53015;50.046;8.238;2022-10-16T02:05:56;14.65;98.08
66213;SHT31;53015;50.046;8.238;2022-10-16T02:08:24;14.60;98.01
66213;SHT31;53015;50.046;8.238;2022-10-16T02:10:55;14.56;98.07
66213;SHT31;53015;50.046;8.238;2022-10-16T02:13:28;14.56;98.18
66213;SHT31;53015;50.046;8.238;2022-10-16T02:15:55;14.59;98.26
66213;SHT31;53015;50.046;8.238;2022-10-16T02:18:20;14.60;98.12
66213;SHT31;53015;50.046;8.238;2022-10-16T02:23:56;14.64;98.21
66213;SHT31;53015;50.046;8.238;2022-10-16T02:26:29;14.63;98.17
66213;SHT31;53015;50.046;8.238;2022-10-16T02:29:00;14.60;98.15
66213;SHT31;53015;50.046;8.238;2022-10-16T02:31:32;14.67;98.02
66213;SHT31;53015;50.046;8.238;2022-10-16T02:34:00;14.67;98.03
66213;SHT31;53015;50.046;8.238;2022-10-16T02:36:27;14.65;97.90
66213;SHT31;53015;50.046;8.238;2022-10-16T02:38:52;14.67;98.04
66213;SHT31;53015;50.046;8.238;2022-10-16T02:41:19;14.68;98.05
66213;SHT31;53015;50.046;8.238;2022-10-16T02:43:45;14.75;98.00
66213;SHT31;53015;50.046;8.238;2022-10-16T02:46:11;14.75;97.98
66213;SHT31;53015;50.046;8.238;2022-10-16T02:48:36;14.71;98.16
66213;SHT31;53015;50.046;8.238;2022-10-16T02:51:01;14.70;97.98
66213;SHT31;53015;50.046;8.238;2022-10-16T02:53:27;14.65;98.06
66213;SHT31;53015;50.046;8.238;2022-10-16T02:55:52;14.67;98.29
66213;SHT31;53015;50.046;8.238;2022-10-16T02:58:18;14.61;98.44
66213;SHT31;53015;50.046;8.238;2022-10-16T03:00:43;14.61;98.45
66213;SHT31;53015;50.046;8.238;2022-10-16T03:03:08;14.68;98.39
66213;SHT31;53015;50.046;8.238;2022-10-16T03:05:34;14.75;98.37
66213;SHT31;53015;50.046;8.238;2022-10-16T03:07:59;14.68;98.24
66213;SHT31;53015;50.046;8.238;2022-10-16T03:10:26;14.70;98.26
66213;SHT31;53015;50.046;8.238;2022-10-16T03:12:51;14.75;98.21
66213;SHT31;53015;50.046;8.238;2022-10-16T03:15:17;14.71;98.32
66213;SHT31;53015;50.046;8.238;2022-10-16T03:17:42;14.85;98.21
66213;SHT31;53015;50.046;8.238;2022-10-16T03:20:08;14.84;98.08
66213;SHT31;53015;50.046;8.238;2022-10-16T03:22:34;14.88;98.16
66213;SHT31;53015;50.046;8.238;2022-10-16T03:24:59;14.96;97.91
66213;SHT31;53015;50.046;8.238;2022-10-16T03:27:24;14.98;97.96
66213;SHT31;53015;50.046;8.238;2022-10-16T03:29:50;14.96;98.01
66213;SHT31;53015;50.046;8.238;2022-10-16T03:32:15;14.89;98.14
66213;SHT31;53015;50.046;8.238;2022-10-16T03:34:41;14.92;98.21
66213;SHT31;53015;50.046;8.238;2022-10-16T03:37:06;14.96;98.06
66213;SHT31;53015;50.046;8.238;2022-10-16T03:39:31;14.89;98.19
66213;SHT31;53015;50.046;8.238;2022-10-16T03:41:57;14.87;98.53
66213;SHT31;53015;50.046;8.238;2022-10-16T03:44:22;14.87;98.47
66213;SHT31;53015;50.046;8.238;2022-10-16T03:46:48;14.89;98.50
66213;SHT31;53015;50.046;8.238;2022-10-16T03:49:13;14.92;98.13
66213;SHT31;53015;50.046;8.238;2022-10-16T03:51:39;14.89;98.31
66213;SHT31;53015;50.046;8.238;2022-10-16T03:54:04;14.82;98.39
66213;SHT31;53015;50.046;8.238;2022-10-16T03:56:29;14.89;98.16
66213;SHT31;53015;50.046;8.238;2022-10-16T03:58:55;14.85;98.19
66213;SHT31;53015;50.046;8.238;2022-10-16T04:01:20;14.85;98.26
66213;SHT31;53015;50.046;8.238;2022-10-16T04:03:46;14.89;98.42
66213;SHT31;53015;50.046;8.238;2022-10-16T04:06:11;14.85;98.63
66213;SHT31;53015;50.046;8.238;2022-10-16T04:08:36;14.88;98.51
66213;SHT31;53015;50.046;8.238;2022-10-16T04:11:04;14.84;98.54
66213;SHT31;53015;50.046;8.238;2022-10-16T04:13:29;14.79;98.56
66213;SHT31;53015;50.046;8.238;2022-10-16T04:15:55;14.87;98.43
66213;SHT31;53015;50.046;8.238;2022-10-16T04:18:20;14.85;98.39
66213;SHT31;53015;50.046;8.238;2022-10-16T04:20:45;14.81;98.62
66213;SHT31;53015;50.046;8.238;2022-10-16T04:23:11;14.82;98.45
66213;SHT31;53015;50.046;8.238;2022-10-16T04:25:36;14.78;98.40
66213;SHT31;53015;50.046;8.238;2022-10-16T04:28:02;14.79;98.38
66213;SHT31;53015;50.046;8.238;2022-10-16T04:30:27;14.78;98.30
66213;SHT31;53015;50.046;8.238;2022-10-16T04:32:53;14.68;98.59
66213;SHT31;53015;50.046;8.238;2022-10-16T04:35:20;14.63;98.78
66213;SHT31;53015;50.046;8.238;2022-10-16T04:37:46;14.70;98.88
66213;SHT31;53015;50.046;8.238;2022-10-16T04:40:11;14.77;98.74
66213;SHT31;53015;50.046;8.238;2022-10-16T04:42:37;14.78;98.57
66213;SHT31;53015;50.046;8.238;2022-10-16T04:45:04;14.89;98.32
66213;SHT31;53015;50.046;8.238;2022-10-16T04:47:30;14.91;98.25
66213;SHT31;53015;50.046;8.238;2022-10-16T04:49:55;15.00;98.17
66213;SHT31;53015;50.046;8.238;2022-10-16T04:52:21;14.99;97.99
66213;SHT31;53015;50.046;8.238;2022-10-16T04:54:49;14.99;97.86
66213;SHT31;53015;50.046;8.238;2022-10-16T04:57:15;14.98;98.22
66213;SHT31;53015;50.046;8.238;2022-10-16T04:59:40;14.93;98.34
66213;SHT31;53015;50.046;8.238;2022-10-16T05:02:06;14.96;98.38
66213;SHT31;53015;50.046;8.238;2022-10-16T05:04:31;14.99;98.29
66213;SHT31;53015;50.046;8.238;2022-10-16T05:06:56;14.98;98.30
66213;SHT31;53015;50.046;8.238;2022-10-16T05:09:22;14.92;98.50
66213;SHT31;53015;50.046;8.238;2022-10-16T05:11:47;14.95;98.32
66213;SHT31;53015;50.046;8.238;2022-10-16T05:14:13;14.89;98.39
66213;SHT31;53015;50.046;8.238;2022-10-16T05:16:38;14.81;98.56
66213;SHT31;53015;50.046;8.238;2022-10-16T05:19:03;14.81;98.42
66213;SHT31;53015;50.046;8.238;2022-10-16T05:21:29;14.85;98.55
66213;SHT31;53015;50.046;8.238;2022-10-16T05:23:54;14.71;98.85
66213;SHT31;53015;50.046;8.238;2022-10-16T05:26:20;14.71;98.73
66213;SHT31;53015;50.046;8.238;2022-10-16T05:28:46;14.70;98.65
66213;SHT31;53015;50.046;8.238;2022-10-16T05:31:12;14.71;98.81
66213;SHT31;53015;50.046;8.238;2022-10-16T05:33:37;14.74;98.87
66213;SHT31;53015;50.046;8.238;2022-10-16T05:36:04;14.78;98.82
66213;SHT31;53015;50.046;8.238;2022-10-16T05:38:31;14.79;98.68
66213;SHT31;53015;50.046;8.238;2022-10-16T05:40:56;14.85;98.72
66213;SHT31;53015;50.046;8.238;2022-10-16T05:43:22;14.82;98.71
66213;SHT31;53015;50.046;8.238;2022-10-16T05:45:59;14.87;98.57
66213;SHT31;53015;50.046;8.238;2022-10-16T05:48:25;14.89;98.44
66213;SHT31;53015;50.046;8.238;2022-10-16T05:51:06;14.93;98.31
66213;SHT31;53015;50.046;8.238;2022-10-16T05:53:34;14.99;98.21
66213;SHT31;53015;50.046;8.238;2022-10-16T05:56:00;14.95;98.22
66213;SHT31;53015;50.046;8.238;2022-10-16T05:58:29;15.03;98.04
66213;SHT31;53015;50.046;8.238;2022-10-16T06:00:57;15.03;97.95
66213;SHT31;53015;50.046;8.238;2022-10-16T06:03:23;14.98;97.96
66213;SHT31;53015;50.046;8.238;2022-10-16T06:05:48;15.03;97.96
66213;SHT31;53015;50.046;8.238;2022-10-16T06:08:14;15.09;97.91
66213;SHT31;53015;50.046;8.238;2022-10-16T06:10:39;15.05;98.02
66213;SHT31;53015;50.046;8.238;2022-10-16T06:13:05;15.03;98.09
66213;SHT31;53015;50.046;8.238;2022-10-16T06:15:30;15.06;98.22
66213;SHT31;53015;50.046;8.238;2022-10-16T06:17:56;15.10;97.94
66213;SHT31;53015;50.046;8.238;2022-10-16T06:20:21;15.10;97.94
66213;SHT31;53015;50.046;8.238;2022-10-16T06:22:46;15.10;97.90
66213;SHT31;53015;50.046;8.238;2022-10-16T06:25:12;15.10;97.66
66213;SHT31;53015;50.046;8.238;2022-10-16T06:27:39;14.99;97.87
66213;SHT31;53015;50.046;8.238;2022-10-16T06:30:06;15.00;98.28
66213;SHT31;53015;50.046;8.238;2022-10-16T06:32:32;15.05;98.40
66213;SHT31;53015;50.046;8.238;2022-10-16T06:34:57;15.08;98.43
66213;SHT31;53015;50.046;8.238;2022-10-16T06:37:22;15.12;98.34
66213;SHT31;53015;50.046;8.238;2022-10-16T06:39:48;15.16;98.20
66213;SHT31;53015;50.046;8.238;2022-10-16T06:42:13;15.19;97.99
66213;SHT31;53015;50.046;8.238;2022-10-16T06:44:38;15.25;97.93
66213;SHT31;53015;50.046;8.238;2022-10-16T06:47:04;15.23;98.06
66213;SHT31;53015;50.046;8.238;2022-10-16T06:49:29;15.23;98.18
66213;SHT31;53015;50.046;8.238;2022-10-16T06:51:55;15.32;98.01
66213;SHT31;53015;50.046;8.238;2022-10-16T06:54:20;15.37;97.74
66213;SHT31;53015;50.046;8.238;2022-10-16T06:56:45;15.40;97.61
66213;SHT31;53015;50.046;8.238;2022-10-16T06:59:11;15.43;97.64
66213;SHT31;53015;50.046;8.238;2022-10-16T07:01:36;15.37;97.56
66213;SHT31;53015;50.046;8.238;2022-10-16T07:04:02;15.42;97.63
66213;SHT31;53015;50.046;8.238;2022-10-16T07:06:31;15.40;97.86
66213;SHT31;53015;50.046;8.238;2022-10-16T07:08:57;15.44;97.71
66213;SHT31;53015;50.046;8.238;2022-10-16T07:11:23;15.42;97.86
66213;SHT31;53015;50.046;8.238;2022-10-16T07:13:49;15.46;97.82
66213;SHT31;53015;50.046;8.238;2022-10-16T07:16:18;15.47;97.60
66213;SHT31;53015;50.046;8.238;2022-10-16T07:18:44;15.42;97.86
66213;SHT31;53015;50.046;8.238;2022-10-16T07:21:15;15.50;97.73
66213;SHT31;53015;50.046;8.238;2022-10-16T07:23:41;15.53;97.48
66213;SHT31;53015;50.046;8.238;2022-10-16T07:26:07;15.51;97.71
66213;SHT31;53015;50.046;8.238;2022-10-16T07:28:33;15.60;97.66
66213;SHT31;53015;50.046;8.238;2022-10-16T07:31:06;15.63;97.54
66213;SHT31;53015;50.046;8.238;2022-10-16T07:33:33;15.68;97.19
66213;SHT31;53015;50.046;8.238;2022-10-16T07:35:59;15.65;97.12
66213;SHT31;53015;50.046;8.238;2022-10-16T07:38:24;15.68;97.25
66213;SHT31;53015;50.046;8.238;2022-10-16T07:41:00;15.72;96.74
66213;SHT31;53015;50.046;8.238;2022-10-16T07:43:26;15.82;96.66
66213;SHT31;53015;50.046;8.238;2022-10-16T07:45:52;15.85;96.61
66213;SHT31;53015;50.046;8.238;2022-10-16T07:48:19;15.90;96.81
66213;SHT31;53015;50.046;8.238;2022-10-16T07:50:45;15.87;97.07
66213;SHT31;53015;50.046;8.238;2022-10-16T07:53:10;15.85;97.13
66213;SHT31;53015;50.046;8.238;2022-10-16T07:55:36;15.90;96.99
66213;SHT31;53015;50.046;8.238;2022-10-16T07:58:01;15.95;96.76
66213;SHT31;53015;50.046;8.238;2022-10-16T08:00:27;16.01;96.23
66213;SHT31;53015;50.046;8.238;2022-10-16T08:02:52;16.05;96.20
66213;SHT31;53015;50.046;8.238;2022-10-16T08:05:18;16.10;96.16
66213;SHT31;53015;50.046;8.238;2022-10-16T08:07:48;16.13;96.32
66213;SHT31;53015;50.046;8.238;2022-10-16T08:10:18;16.16;96.26
66213;SHT31;53015;50.046;8.238;2022-10-16T08:12:44;16.16;96.34
66213;SHT31;53015;50.046;8.238;2022-10-16T08:15:10;16.13;96.64
66213;SHT31;53015;50.046;8.238;2022-10-16T08:17:35;16.09;97.14
66213;SHT31;53015;50.046;8.238;2022-10-16T08:20:01;16.06;97.37
66213;SHT31;53015;50.046;8.238;2022-10-16T08:22:27;16.10;97.32
66213;SHT31;53015;50.046;8.238;2022-10-16T08:24:52;16.10;97.30
66213;SHT31;53015;50.046;8.238;2022-10-16T08:27:17;16.13;97.24
66213;SHT31;53015;50.046;8.238;2022-10-16T08:29:43;16.16;97.11
66213;SHT31;53015;50.046;8.238;2022-10-16T08:32:08;16.19;96.79
66213;SHT31;53015;50.046;8.238;2022-10-16T08:34:33;16.29;96.63
66213;SHT31;53015;50.046;8.238;2022-10-16T08:36:59;16.32;96.43
66213;SHT31;53015;50.046;8.238;2022-10-16T08:39:24;16.37;96.42
66213;SHT31;53015;50.046;8.238;2022-10-16T08:49:18;16.47;95.68
66213;SHT31;53015;50.046;8.238;2022-10-16T08:51:43;16.56;95.68
66213;SHT31;53015;50.046;8.238;2022-10-16T08:56:48;16.52;95.41
66213;SHT31;53015;50.046;8.238;2022-10-16T08:59:14;16.50;95.43
66213;SHT31;53015;50.046;8.238;2022-10-16T09:01:44;16.49;95.66
66213;SHT31;53015;50.046;8.238;2022-10-16T09:07:31;16.43;95.22
66213;SHT31;53015;50.046;8.238;2022-10-16T09:18:23;16.43;96.83
66213;SHT31;53015;50.046;8.238;2022-10-16T09:23:46;16.42;96.89
66213;SHT31;53015;50.046;8.238;2022-10-16T09:26:14;16.49;96.92
66213;SHT31;53015;50.046;8.238;2022-10-16T09:28:40;16.46;97.10
66213;SHT31;53015;50.046;8.238;2022-10-16T09:31:13;16.63;96.50
66213;SHT31;53015;50.046;8.238;2022-10-16T09:33:40;16.73;96.21
66213;SHT31;53015;50.046;8.238;2022-10-16T09:36:08;16.74;95.01
66213;SHT31;53015;50.046;8.238;2022-10-16T09:38:36;16.80;94.77
66213;SHT31;53015;50.046;8.238;2022-10-16T09:41:14;16.85;94.42
66213;SHT31;53015;50.046;8.238;2022-10-16T09:43:47;17.02;94.11
66213;SHT31;53015;50.046;8.238;2022-10-16T09:48:59;17.38;91.99
66213;SHT31;53015;50.046;8.238;2022-10-16T09:54:00;17.53;90.57
66213;SHT31;53015;50.046;8.238;2022-10-16T09:56:31;17.76;88.61
66213;SHT31;53015;50.046;8.238;2022-10-16T09:59:19;17.97;87.40
66213;SHT31;53015;50.046;8.238;2022-10-16T10:01:50;18.09;87.35
66213;SHT31;53015;50.046;8.238;2022-10-16T10:04:17;18.28;87.13
66213;SHT31;53015;50.046;8.238;2022-10-16T10:06:45;18.43;87.26
66213;SHT31;53015;50.046;8.238;2022-10-16T10:12:01;18.56;88.36
66213;SHT31;53015;50.046;8.238;2022-10-16T10:14:46;18.60;88.79
66213;SHT31;53015;50.046;8.238;2022-10-16T10:17:15;18.66;87.40
66213;SHT31;53015;50.046;8.238;2022-10-16T10:20:46;18.59;87.75
66213;SHT31;53015;50.046;8.238;2022-10-16T10:22:46;18.79;87.81
66213;SHT31;53015;50.046;8.238;2022-10-16T10:33:34;18.86;88.07
66213;SHT31;53015;50.046;8.238;2022-10-16T10:38:57;18.98;86.79
66213;SHT31;53015;50.046;8.238;2022-10-16T10:46:48;19.14;86.92
66213;SHT31;53015;50.046;8.238;2022-10-16T10:52:09;19.24;86.87
66213;SHT31;53015;50.046;8.238;2022-10-16T10:54:55;19.28;86.92
66213;SHT31;53015;50.046;8.238;2022-10-16T10:57:34;19.29;87.05
66213;SHT31;53015;50.046;8.238;2022-10-16T11:03:09;19.42;87.15
66213;SHT31;53015;50.046;8.238;2022-10-16T11:05:42;19.61;86.40
66213;SHT31;53015;50.046;8.238;2022-10-16T11:08:41;19.72;85.35
66213;SHT31;53015;50.046;8.238;2022-10-16T11:16:13;19.28;85.50
66213;SHT31;53015;50.046;8.238;2022-10-16T11:18:49;19.43;86.79
66213;SHT31;53015;50.046;8.238;2022-10-16T11:21:18;19.43;86.28
66213;SHT31;53015;50.046;8.238;2022-10-16T11:23:56;19.36;86.65
66213;SHT31;53015;50.046;8.238;2022-10-16T11:26:42;19.51;87.18
66213;SHT31;53015;50.046;8.238;2022-10-16T11:29:17;19.58;86.20
66213;SHT31;53015;50.046;8.238;2022-10-16T11:31:54;19.51;86.48
66213;SHT31;53015;50.046;8.238;2022-10-16T11:37:12;19.77;85.80
66213;SHT31;53015;50.046;8.238;2022-10-16T11:39:39;19.91;85.69
66213;SHT31;53015;50.046;8.238;2022-10-16T11:42:08;20.01;85.32
66213;SHT31;53015;50.046;8.238;2022-10-16T11:45:00;19.93;85.28
66213;SHT31;53015;50.046;8.238;2022-10-16T11:47:33;20.08;85.12
66213;SHT31;53015;50.046;8.238;2022-10-16T11:50:24;19.90;85.48
66213;SHT31;53015;50.046;8.238;2022-10-16T11:55:40;19.79;85.21
66213;SHT31;53015;50.046;8.238;2022-10-16T12:00:51;19.83;85.32
66213;SHT31;53015;50.046;8.238;2022-10-16T12:03:30;19.79;85.02
66213;SHT31;53015;50.046;8.238;2022-10-16T12:08:41;20.07;84.41
66213;SHT31;53015;50.046;8.238;2022-10-16T12:11:20;20.16;84.07
66213;SHT31;53015;50.046;8.238;2022-10-16T12:13:47;20.17;84.47
66213;SHT31;53015;50.046;8.238;2022-10-16T12:18:44;20.25;84.53
66213;SHT31;53015;50.046;8.238;2022-10-16T12:21:11;20.16;84.75
66213;SHT31;53015;50.046;8.238;2022-10-16T12:23:56;20.01;85.34
66213;SHT31;53015;50.046;8.238;2022-10-16T12:26:26;20.00;85.97
66213;SHT31;53015;50.046;8.238;2022-10-16T12:28:53;20.06;86.09
66213;SHT31;53015;50.046;8.238;2022-10-16T12:31:19;20.13;85.97
66213;SHT31;53015;50.046;8.238;2022-10-16T12:33:59;20.10;85.38
66213;SHT31;53015;50.046;8.238;2022-10-16T12:36:33;20.24;85.60
66213;SHT31;53015;50.046;8.238;2022-10-16T12:38:59;20.41;84.11
66213;SHT31;53015;50.046;8.238;2022-10-16T12:41:34;20.35;83.94
66213;SHT31;53015;50.046;8.238;2022-10-16T12:44:01;20.29;83.54
66213;SHT31;53015;50.046;8.238;2022-10-16T12:51:40;20.20;84.13
66213;SHT31;53015;50.046;8.238;2022-10-16T12:54:17;20.22;84.78
66213;SHT31;53015;50.046;8.238;2022-10-16T13:10:18;20.38;81.76
66213;SHT31;53015;50.046;8.238;2022-10-16T13:12:57;20.35;81.33
66213;SHT31;53015;50.046;8.238;2022-10-16T13:18:16;20.31;82.50
66213;SHT31;53015;50.046;8.238;2022-10-16T13:21:12;20.46;82.71
66213;SHT31;53015;50.046;8.238;2022-10-16T13:29:07;20.18;83.40
66213;SHT31;53015;50.046;8.238;2022-10-16T13:31:32;20.20;84.62
66213;SHT31;53015;50.046;8.238;2022-10-16T13:34:00;20.27;83.08
66213;SHT31;53015;50.046;8.238;2022-10-16T13:36:29;20.25;83.52
66213;SHT31;53015;50.046;8.238;2022-10-16T13:41:29;20.14;84.18
66213;SHT31;53015;50.046;8.238;2022-10-16T13:43:56;20.14;83.94
66213;SHT31;53015;50.046;8.238;2022-10-16T13:46:24;20.20;83.18
66213;SHT31;53015;50.046;8.238;2022-10-16T13:49:01;20.14;83.21
66213;SHT31;53015;50.046;8.238;2022-10-16T13:51:28;20.13;83.69
66213;SHT31;53015;50.046;8.238;2022-10-16T13:53:55;20.03;84.28
66213;SHT31;53015;50.046;8.238;2022-10-16T13:56:24;20.08;84.27
66213;SHT31;53015;50.046;8.238;2022-10-16T13:59:22;20.06;84.24
66213;SHT31;53015;50.046;8.238;2022-10-16T14:01:47;20.07;84.49
66213;SHT31;53015;50.046;8.238;2022-10-16T14:04:13;20.10;83.96
66213;SHT31;53015;50.046;8.238;2022-10-16T14:06:44;20.16;85.52
66213;SHT31;53015;50.046;8.238;2022-10-16T14:11:53;20.17;86.13
66213;SHT31;53015;50.046;8.238;2022-10-16T14:14:20;20.24;86.50
66213;SHT31;53015;50.046;8.238;2022-10-16T14:16:45;20.28;86.41
66213;SHT31;53015;50.046;8.238;2022-10-16T14:19:28;20.28;86.85
66213;SHT31;53015;50.046;8.238;2022-10-16T14:21:55;20.25;86.65
66213;SHT31;53015;50.046;8.238;2022-10-16T14:24:33;20.31;86.05
66213;SHT31;53015;50.046;8.238;2022-10-16T14:27:00;20.28;84.46
66213;SHT31;53015;50.046;8.238;2022-10-16T14:29:26;20.34;83.99
66213;SHT31;53015;50.046;8.238;2022-10-16T14:32:00;20.36;83.84
66213;SHT31;53015;50.046;8.238;2022-10-16T14:34:30;20.32;84.71
66213;SHT31;53015;50.046;8.238;2022-10-16T14:37:00;20.28;84.59
66213;SHT31;53015;50.046;8.238;2022-10-16T14:39:27;20.20;85.06
66213;SHT31;53015;50.046;8.238;2022-10-16T14:41:55;20.07;84.73
66213;SHT31;53015;50.046;8.238;2022-10-16T14:44:28;19.96;85.13
66213;SHT31;53015;50.046;8.238;2022-10-16T14:46:53;19.96;85.25
66213;SHT31;53015;50.046;8.238;2022-10-16T14:49:20;19.90;85.37
66213;SHT31;53015;50.046;8.238;2022-10-16T14:51:47;19.89;85.52
66213;SHT31;53015;50.046;8.238;2022-10-16T14:54:17;19.87;86.40
66213;SHT31;53015;50.046;8.238;2022-10-16T14:56:47;19.91;86.73
66213;SHT31;53015;50.046;8.238;2022-10-16T14:59:35;19.90;86.40
66213;SHT31;53015;50.046;8.238;2022-10-16T15:04:49;19.83;85.66
66213;SHT31;53015;50.046;8.238;2022-10-16T15:07:15;19.81;86.48
66213;SHT31;53015;50.046;8.238;2022-10-16T15:09:41;19.83;86.51
66213;SHT31;53015;50.046;8.238;2022-10-16T15:12:06;19.90;86.35
66213;SHT31;53015;50.046;8.238;2022-10-16T15:14:31;19.97;86.99
66213;SHT31;53015;50.046;8.238;2022-10-16T15:16:57;19.98;86.25
66213;SHT31;53015;50.046;8.238;2022-10-16T15:19:22;19.90;86.09
66213;SHT31;53015;50.046;8.238;2022-10-16T15:21:48;19.87;86.97
66213;SHT31;53015;50.046;8.238;2022-10-16T15:24:14;19.87;87.33
66213;SHT31;53015;50.046;8.238;2022-10-16T15:26:40;19.84;87.86
66213;SHT31;53015;50.046;8.238;2022-10-16T15:29:05;19.76;88.54
66213;SHT31;53015;50.046;8.238;2022-10-16T15:31:31;19.74;88.77
66213;SHT31;53015;50.046;8.238;2022-10-16T15:33:57;19.66;89.08
66213;SHT31;53015;50.046;8.238;2022-10-16T15:36:31;19.58;88.82
66213;SHT31;53015;50.046;8.238;2022-10-16T15:38:59;19.56;89.05
66213;SHT31;53015;50.046;8.238;2022-10-16T15:41:25;19.49;89.14
66213;SHT31;53015;50.046;8.238;2022-10-16T15:43:51;19.46;89.91
66213;SHT31;53015;50.046;8.238;2022-10-16T15:46:21;19.39;90.74
66213;SHT31;53015;50.046;8.238;2022-10-16T15:48:49;19.29;91.00
66213;SHT31;53015;50.046;8.238;2022-10-16T15:51:15;19.21;91.07
66213;SHT31;53015;50.046;8.238;2022-10-16T15:53:41;19.14;90.92
66213;SHT31;53015;50.046;8.238;2022-10-16T15:56:08;19.11;91.40
66213;SHT31;53015;50.046;8.238;2022-10-16T15:58:34;19.07;91.89
66213;SHT31;53015;50.046;8.238;2022-10-16T16:01:01;19.01;91.62
66213;SHT31;53015;50.046;8.238;2022-10-16T16:03:27;19.00;92.09
66213;SHT31;53015;50.046;8.238;2022-10-16T16:05:54;18.97;92.76
66213;SHT31;53015;50.046;8.238;2022-10-16T16:08:20;18.97;92.43
66213;SHT31;53015;50.046;8.238;2022-10-16T16:10:45;18.97;91.67
66213;SHT31;53015;50.046;8.238;2022-10-16T16:13:12;18.98;91.57
66213;SHT31;53015;50.046;8.238;2022-10-16T16:15:40;18.97;91.55
66213;SHT31;53015;50.046;8.238;2022-10-16T16:18:06;18.91;91.46
66213;SHT31;53015;50.046;8.238;2022-10-16T16:20:32;18.90;91.54
66213;SHT31;53015;50.046;8.238;2022-10-16T16:22:57;18.86;91.46
66213;SHT31;53015;50.046;8.238;2022-10-16T16:25:23;18.80;91.60
66213;SHT31;53015;50.046;8.238;2022-10-16T16:27:48;18.73;91.92
66213;SHT31;53015;50.046;8.238;2022-10-16T16:30:14;18.73;91.92
66213;SHT31;53015;50.046;8.238;2022-10-16T16:32:39;18.64;92.08
66213;SHT31;53015;50.046;8.238;2022-10-16T16:35:05;18.59;92.31
66213;SHT31;53015;50.046;8.238;2022-10-16T16:37:30;18.57;92.38
66213;SHT31;53015;50.046;8.238;2022-10-16T16:39:56;18.49;92.92
66213;SHT31;53015;50.046;8.238;2022-10-16T16:42:24;18.43;93.00
66213;SHT31;53015;50.046;8.238;2022-10-16T16:44:50;18.41;93.44
66213;SHT31;53015;50.046;8.238;2022-10-16T16:47:16;18.36;93.96
66213;SHT31;53015;50.046;8.238;2022-10-16T16:49:41;18.26;94.32
66213;SHT31;53015;50.046;8.238;2022-10-16T16:52:07;18.21;94.45
66213;SHT31;53015;50.046;8.238;2022-10-16T16:54:32;18.16;94.49
66213;SHT31;53015;50.046;8.238;2022-10-16T16:56:57;18.12;94.55
66213;SHT31;53015;50.046;8.238;2022-10-16T16:59:23;18.12;94.64
66213;SHT31;53015;50.046;8.238;2022-10-16T17:01:49;18.09;94.71
66213;SHT31;53015;50.046;8.238;2022-10-16T17:04:15;18.11;94.92
66213;SHT31;53015;50.046;8.238;2022-10-16T17:06:41;18.09;95.13
66213;SHT31;53015;50.046;8.238;2022-10-16T17:09:07;18.04;95.25
66213;SHT31;53015;50.046;8.238;2022-10-16T17:11:33;18.00;95.41
66213;SHT31;53015;50.046;8.238;2022-10-16T17:14:00;17.95;95.42
66213;SHT31;53015;50.046;8.238;2022-10-16T17:16:28;17.97;95.56
66213;SHT31;53015;50.046;8.238;2022-10-16T17:18:54;17.87;95.64
66213;SHT31;53015;50.046;8.238;2022-10-16T17:21:20;17.83;95.62
66213;SHT31;53015;50.046;8.238;2022-10-16T17:23:45;17.71;95.79
66213;SHT31;53015;50.046;8.238;2022-10-16T17:26:16;17.65;95.91
66213;SHT31;53015;50.046;8.238;2022-10-16T17:28:41;17.65;96.17
66213;SHT31;53015;50.046;8.238;2022-10-16T17:31:15;17.60;96.26
66213;SHT31;53015;50.046;8.238;2022-10-16T17:33:41;17.50;96.34
66213;SHT31;53015;50.046;8.238;2022-10-16T17:36:07;17.42;96.66
66213;SHT31;53015;50.046;8.238;2022-10-16T17:38:33;17.32;96.74